Accueil
METAR-TAF:

METAR-TAF

Aéroports :

Cassel, Allemagne

latitude: 51-24N, longitude: 009-23E, altitude: 277 m

Observation

Le bulletin a été fait il y a 21 minutes, à 20:20 UTC
Vent 3 kt de sud
Température 7°C
Humidité 87%
Pression 1027 hPa
Visibilité 10 km ou plus
pas de nuages en-dessous de 1500 mètres et pas de cumulonimbus.

METAR: EDVK 212020Z 17003KT CAVOK 07/05 Q1027

Heure: 22:41 (20:41 UTC)

Prévision

Le bulletin a été fait il y a 41 minutes, à 20:00 UTC
Prévision valable du 21 à 21 UTC au 22 à 03 UTC
Vent 3 kt de direction variable
Visibilité 10 km ou plus
pas de nuages en-dessous de 1500 mètres et pas de cumulonimbus.
Temporairement
du 22 à 00 UTC au 22 à 03 UTC
Visibilité: 3500 m
brume

TAF: EDVK 212000Z 2121/2203 VRB03KT CAVOK TEMPO 2200/2203 3500 BR

Observations et prévisions météorologiques de plus de 4000 aéroports (messages METAR et TAF).

Les stations disponibles sont représentées par des disques jaunes et rouges sur la carte.

Passer la souris dessus pour voir le nom de la station.

Cliquer dessus pour voir les observations et prévisions météorologiques.

Pour changer de carte: cliquez sur les boutons verts avec une croix noire pour zoomer, sur le bouton vert avec un tiret pour effectuer un zoom arrière, ou sur les flèches vertes pour les cartes adjacentes.


METAR-TAF: